EZY655V EGGW-EGAC
Flight info
| Callsign | EZY655V |
|---|---|
| Flight time | N/A |
| Altitude | 34000 |
| Route | OLNEY T420 TNT UL28 RODOL UM65 TENSO L603 BELOX DCT REMSI DCT NINEB M148 MAGEE |
| Aircraft | A320/M-SDE3FGHIRWY/LB1 |
Departure
| Time | 2026-05-05 19:17 |
|---|---|
| Airport | London Luton Airport (EGGW) |
Arrival
| Time | N/A |
|---|---|
| Airport | George Best Belfast City Airport (EGAC) |
| Time | Latitude | Longitude | Altitude | Speed | Heading |
|---|---|---|---|---|---|
| 2026-05-05 18:35 | 51.88019 | -0.37826 | 524 ft | 0 kts | 128° |
| 2026-05-05 19:04 | 51.88020 | -0.37828 | 523 ft | 2 kts | 129° |
| 2026-05-05 19:05 | 51.88038 | -0.37855 | 523 ft | 4 kts | 157° |
| 2026-05-05 19:05 | 51.88062 | -0.37863 | 523 ft | 2 kts | 184° |
| 2026-05-05 19:05 | 51.88064 | -0.37863 | 523 ft | 0 kts | 184° |
| 2026-05-05 19:09 | 51.88047 | -0.37886 | 523 ft | 4 kts | 228° |
| 2026-05-05 19:09 | 51.88017 | -0.37936 | 523 ft | 9 kts | 220° |
| 2026-05-05 19:09 | 51.87977 | -0.37985 | 523 ft | 7 kts | 213° |
| 2026-05-05 19:09 | 51.87906 | -0.38015 | 523 ft | 11 kts | 180° |
| 2026-05-05 19:10 | 51.87837 | -0.37980 | 523 ft | 10 kts | 144° |
| 2026-05-05 19:10 | 51.87797 | -0.37904 | 523 ft | 8 kts | 122° |
| 2026-05-05 19:10 | 51.87769 | -0.37806 | 523 ft | 11 kts | 114° |
| 2026-05-05 19:10 | 51.87724 | -0.37653 | 519 ft | 19 kts | 115° |
| 2026-05-05 19:11 | 51.87681 | -0.37518 | 521 ft | 12 kts | 125° |
| 2026-05-05 19:11 | 51.87624 | -0.37461 | 523 ft | 8 kts | 163° |
| 2026-05-05 19:11 | 51.87552 | -0.37464 | 521 ft | 14 kts | 193° |
| 2026-05-05 19:11 | 51.87497 | -0.37576 | 522 ft | 12 kts | 248° |
| 2026-05-05 19:12 | 51.87477 | -0.37695 | 523 ft | 13 kts | 254° |
| 2026-05-05 19:12 | 51.87448 | -0.37861 | 523 ft | 14 kts | 254° |
| 2026-05-05 19:12 | 51.87422 | -0.37998 | 524 ft | 11 kts | 244° |
| 2026-05-05 19:12 | 51.87367 | -0.38067 | 523 ft | 8 kts | 204° |
| 2026-05-05 19:13 | 51.87356 | -0.38075 | 523 ft | 0 kts | 204° |
| 2026-05-05 19:15 | 51.87355 | -0.38076 | 523 ft | 1 kts | 204° |
| 2026-05-05 19:16 | 51.87313 | -0.38109 | 522 ft | 8 kts | 206° |
| 2026-05-05 19:16 | 51.87255 | -0.38121 | 523 ft | 9 kts | 158° |
| 2026-05-05 19:16 | 51.87257 | -0.38030 | 524 ft | 10 kts | 77° |
| 2026-05-05 19:16 | 51.87326 | -0.37657 | 521 ft | 71 kts | 73° |
| 2026-05-05 19:17 | 51.87516 | -0.36540 | 525 ft | 132 kts | 74° |
| 2026-05-05 19:17 | 51.87783 | -0.34958 | 907 ft | 147 kts | 73° |
| 2026-05-05 19:17 | 51.88046 | -0.33364 | 1580 ft | 146 kts | 71° |
| 2026-05-05 19:17 | 51.88343 | -0.31742 | 1856 ft | 159 kts | 70° |
| 2026-05-05 19:18 | 51.88688 | -0.29908 | 2011 ft | 181 kts | 70° |
| 2026-05-05 19:18 | 51.89126 | -0.27863 | 2132 ft | 203 kts | 59° |
| 2026-05-05 19:18 | 51.90235 | -0.26363 | 2287 ft | 224 kts | 18° |
| 2026-05-05 19:18 | 51.91839 | -0.26461 | 2538 ft | 246 kts | 339° |
| 2026-05-05 19:19 | 51.93146 | -0.28298 | 2983 ft | 261 kts | 302° |
| 2026-05-05 19:19 | 51.93578 | -0.31183 | 3523 ft | 270 kts | 271° |
| 2026-05-05 19:19 | 51.93372 | -0.34218 | 4088 ft | 273 kts | 261° |
| 2026-05-05 19:19 | 51.93015 | -0.37246 | 4683 ft | 272 kts | 264° |
| 2026-05-05 19:20 | 51.93080 | -0.40225 | 5185 ft | 268 kts | 291° |
| 2026-05-05 19:20 | 51.94054 | -0.42720 | 5723 ft | 262 kts | 315° |
| 2026-05-05 19:20 | 51.95330 | -0.44871 | 5972 ft | 266 kts | 315° |
| 2026-05-05 19:20 | 51.96614 | -0.47038 | 6003 ft | 266 kts | 316° |
| 2026-05-05 19:21 | 51.97896 | -0.49206 | 6423 ft | 267 kts | 315° |
| 2026-05-05 19:21 | 51.99181 | -0.51380 | 6941 ft | 266 kts | 315° |
| 2026-05-05 19:21 | 52.00474 | -0.53531 | 7461 ft | 266 kts | 316° |
| 2026-05-05 19:21 | 52.01789 | -0.55657 | 7905 ft | 269 kts | 316° |
| 2026-05-05 19:22 | 52.03124 | -0.57794 | 8361 ft | 271 kts | 316° |
| 2026-05-05 19:22 | 52.04470 | -0.59946 | 8852 ft | 272 kts | 316° |
| 2026-05-05 19:22 | 52.05818 | -0.62110 | 9310 ft | 273 kts | 315° |
| 2026-05-05 19:22 | 52.07171 | -0.64296 | 9749 ft | 275 kts | 315° |
| 2026-05-05 19:23 | 52.08527 | -0.66495 | 10123 ft | 277 kts | 315° |
| 2026-05-05 19:23 | 52.09922 | -0.68760 | 10269 ft | 288 kts | 315° |
| 2026-05-05 19:23 | 52.11360 | -0.71099 | 10387 ft | 297 kts | 315° |
| 2026-05-05 19:23 | 52.12905 | -0.73416 | 10512 ft | 305 kts | 322° |
| 2026-05-05 19:24 | 52.14699 | -0.75318 | 10669 ft | 310 kts | 328° |
| 2026-05-05 19:24 | 52.16546 | -0.77129 | 11096 ft | 303 kts | 328° |
| 2026-05-05 19:24 | 52.18279 | -0.78836 | 12047 ft | 280 kts | 328° |
| 2026-05-05 19:24 | 52.19872 | -0.80408 | 12893 ft | 266 kts | 327° |
| 2026-05-05 19:25 | 52.21447 | -0.81969 | 13515 ft | 265 kts | 326° |
| 2026-05-05 19:25 | 52.23073 | -0.83586 | 13833 ft | 285 kts | 327° |
| 2026-05-05 19:25 | 52.24836 | -0.85340 | 13976 ft | 308 kts | 327° |
| 2026-05-05 19:25 | 52.26740 | -0.87230 | 14098 ft | 331 kts | 327° |
| 2026-05-05 19:26 | 52.28765 | -0.89243 | 14289 ft | 349 kts | 327° |
| 2026-05-05 19:26 | 52.30862 | -0.91328 | 14758 ft | 357 kts | 327° |
| 2026-05-05 19:26 | 52.33000 | -0.93452 | 15310 ft | 362 kts | 327° |
| 2026-05-05 19:26 | 52.35161 | -0.95605 | 15922 ft | 366 kts | 326° |
| 2026-05-05 19:27 | 52.37352 | -0.97786 | 16506 ft | 370 kts | 327° |
| 2026-05-05 19:27 | 52.39564 | -0.99988 | 17098 ft | 373 kts | 327° |
| 2026-05-05 19:27 | 52.41782 | -1.02205 | 17690 ft | 377 kts | 327° |
| 2026-05-05 19:27 | 52.44028 | -1.04457 | 18267 ft | 381 kts | 327° |
| 2026-05-05 19:28 | 52.46297 | -1.06738 | 18785 ft | 384 kts | 327° |
| 2026-05-05 19:28 | 52.48583 | -1.09035 | 19330 ft | 387 kts | 327° |
| 2026-05-05 19:28 | 52.50887 | -1.11350 | 19868 ft | 390 kts | 327° |
| 2026-05-05 19:28 | 52.53208 | -1.13688 | 20412 ft | 392 kts | 326° |
| 2026-05-05 19:29 | 52.55540 | -1.16041 | 20951 ft | 395 kts | 326° |
| 2026-05-05 19:29 | 52.57886 | -1.18407 | 21464 ft | 398 kts | 326° |
| 2026-05-05 19:29 | 52.59456 | -1.19990 | 21804 ft | 400 kts | 326° |
| 2026-05-05 19:29 | 52.62640 | -1.23199 | 22455 ft | 404 kts | 326° |
| 2026-05-05 19:30 | 52.64222 | -1.24796 | 22776 ft | 406 kts | 326° |
| 2026-05-05 19:30 | 52.66635 | -1.27238 | 23250 ft | 408 kts | 326° |
| 2026-05-05 19:30 | 52.69067 | -1.29704 | 23689 ft | 411 kts | 326° |
| 2026-05-05 19:30 | 52.71512 | -1.32188 | 24063 ft | 414 kts | 326° |
| 2026-05-05 19:31 | 52.73969 | -1.34689 | 24463 ft | 417 kts | 326° |
| 2026-05-05 19:31 | 52.76440 | -1.37210 | 24834 ft | 419 kts | 325° |
| 2026-05-05 19:31 | 52.78932 | -1.39751 | 25178 ft | 422 kts | 325° |
| 2026-05-05 19:31 | 52.81440 | -1.42319 | 25378 ft | 428 kts | 325° |
| 2026-05-05 19:32 | 52.83984 | -1.44933 | 25504 ft | 436 kts | 325° |
| 2026-05-05 19:32 | 52.86579 | -1.47603 | 25631 ft | 442 kts | 325° |
| 2026-05-05 19:32 | 52.89168 | -1.50264 | 25755 ft | 448 kts | 325° |
| 2026-05-05 19:32 | 52.91843 | -1.53016 | 25883 ft | 453 kts | 326° |
| 2026-05-05 19:33 | 52.94568 | -1.55820 | 26045 ft | 457 kts | 326° |
| 2026-05-05 19:33 | 52.97242 | -1.58569 | 26247 ft | 459 kts | 326° |
| 2026-05-05 19:33 | 52.99961 | -1.61368 | 26469 ft | 461 kts | 326° |
| 2026-05-05 19:33 | 53.02687 | -1.64181 | 26696 ft | 461 kts | 326° |
| 2026-05-05 19:34 | 53.05405 | -1.66991 | 26895 ft | 462 kts | 326° |
| 2026-05-05 19:34 | 53.08133 | -1.69819 | 27076 ft | 463 kts | 326° |
| 2026-05-05 19:34 | 53.10877 | -1.72670 | 27241 ft | 465 kts | 326° |
| 2026-05-05 19:35 | 53.16364 | -1.78389 | 27546 ft | 466 kts | 326° |
| 2026-05-05 19:35 | 53.19118 | -1.81266 | 27689 ft | 467 kts | 326° |
| 2026-05-05 19:35 | 53.21872 | -1.84147 | 27846 ft | 467 kts | 326° |
| 2026-05-05 19:35 | 53.24627 | -1.87018 | 28037 ft | 467 kts | 327° |
| 2026-05-05 19:36 | 53.27417 | -1.89799 | 28207 ft | 468 kts | 327° |
| 2026-05-05 19:36 | 53.30243 | -1.92495 | 28400 ft | 467 kts | 329° |
| 2026-05-05 19:36 | 53.33087 | -1.95135 | 28603 ft | 467 kts | 329° |
| 2026-05-05 19:36 | 53.35934 | -1.97757 | 28796 ft | 467 kts | 329° |
| 2026-05-05 19:37 | 53.38775 | -2.00387 | 28988 ft | 466 kts | 329° |
| 2026-05-05 19:37 | 53.41610 | -2.03037 | 29181 ft | 466 kts | 328° |
| 2026-05-05 19:37 | 53.44432 | -2.05706 | 29373 ft | 465 kts | 328° |
| 2026-05-05 19:37 | 53.47237 | -2.08387 | 29580 ft | 464 kts | 328° |
| 2026-05-05 19:38 | 53.50040 | -2.11086 | 29787 ft | 463 kts | 328° |
| 2026-05-05 19:38 | 53.52831 | -2.13785 | 29989 ft | 463 kts | 328° |
| 2026-05-05 19:38 | 53.55586 | -2.16588 | 30052 ft | 462 kts | 323° |
| 2026-05-05 19:39 | 53.60117 | -2.24095 | 30052 ft | 456 kts | 304° |
| 2026-05-05 19:39 | 53.62983 | -2.33463 | 30047 ft | 453 kts | 290° |
| 2026-05-05 19:40 | 53.65269 | -2.43381 | 30045 ft | 453 kts | 289° |
| 2026-05-05 19:40 | 53.67524 | -2.53315 | 30040 ft | 454 kts | 289° |
| 2026-05-05 19:41 | 53.69767 | -2.63252 | 30041 ft | 452 kts | 289° |
| 2026-05-05 19:41 | 53.72005 | -2.73150 | 30043 ft | 450 kts | 289° |
| 2026-05-05 19:42 | 53.74230 | -2.83001 | 30043 ft | 449 kts | 289° |
| 2026-05-05 19:42 | 53.76437 | -2.92867 | 30040 ft | 449 kts | 288° |
| 2026-05-05 19:43 | 53.78641 | -3.02743 | 30057 ft | 449 kts | 288° |
| 2026-05-05 19:43 | 53.80826 | -3.12592 | 30057 ft | 449 kts | 288° |
| 2026-05-05 19:44 | 53.83004 | -3.22473 | 30054 ft | 448 kts | 289° |
| 2026-05-05 19:44 | 53.85168 | -3.32346 | 30051 ft | 447 kts | 289° |
| 2026-05-05 19:45 | 53.87316 | -3.42168 | 30049 ft | 447 kts | 289° |
| 2026-05-05 19:45 | 53.89464 | -3.52065 | 30043 ft | 447 kts | 288° |
| 2026-05-05 19:46 | 53.91603 | -3.61969 | 30038 ft | 447 kts | 288° |
| 2026-05-05 19:46 | 53.93742 | -3.71887 | 30038 ft | 446 kts | 289° |
| 2026-05-05 19:47 | 53.95901 | -3.81766 | 30044 ft | 446 kts | 292° |
| 2026-05-05 19:47 | 53.98888 | -3.91021 | 30032 ft | 447 kts | 298° |
| 2026-05-05 19:48 | 54.01988 | -4.00198 | 30030 ft | 447 kts | 298° |
| 2026-05-05 19:48 | 54.05072 | -4.09379 | 30029 ft | 447 kts | 298° |
| 2026-05-05 19:49 | 54.08477 | -4.18249 | 30032 ft | 448 kts | 303° |
| 2026-05-05 19:49 | 54.12077 | -4.26922 | 30034 ft | 448 kts | 304° |
| 2026-05-05 19:50 | 54.15671 | -4.35607 | 30027 ft | 448 kts | 303° |
| 2026-05-05 19:50 | 54.19225 | -4.44217 | 30047 ft | 437 kts | 303° |
| 2026-05-05 19:50 | 54.20956 | -4.48424 | 29826 ft | 428 kts | 303° |
| 2026-05-05 19:51 | 54.22658 | -4.52581 | 29090 ft | 424 kts | 303° |
| 2026-05-05 19:51 | 54.24333 | -4.56681 | 28500 ft | 417 kts | 303° |
| 2026-05-05 19:51 | 54.25987 | -4.60738 | 27889 ft | 412 kts | 303° |
| 2026-05-05 19:51 | 54.27617 | -4.64743 | 27296 ft | 408 kts | 303° |
| 2026-05-05 19:52 | 54.29229 | -4.68708 | 26697 ft | 404 kts | 303° |
| 2026-05-05 19:52 | 54.30824 | -4.72627 | 26109 ft | 400 kts | 303° |
| 2026-05-05 19:52 | 54.32406 | -4.76523 | 25531 ft | 397 kts | 303° |
| 2026-05-05 19:52 | 54.33973 | -4.80391 | 24951 ft | 394 kts | 303° |
| 2026-05-05 19:53 | 54.35527 | -4.84237 | 24408 ft | 390 kts | 303° |
| 2026-05-05 19:53 | 54.37076 | -4.88080 | 23428 ft | 393 kts | 303° |
| 2026-05-05 19:53 | 54.38619 | -4.91919 | 22279 ft | 388 kts | 303° |
| 2026-05-05 19:53 | 54.40145 | -4.95718 | 21201 ft | 384 kts | 303° |
| 2026-05-05 19:54 | 54.41648 | -4.99457 | 20163 ft | 379 kts | 303° |
| 2026-05-05 19:54 | 54.43137 | -5.03161 | 19171 ft | 374 kts | 303° |
| 2026-05-05 19:54 | 54.44606 | -5.06823 | 18206 ft | 370 kts | 303° |
| 2026-05-05 19:54 | 54.46061 | -5.10428 | 17144 ft | 365 kts | 304° |
| 2026-05-05 19:55 | 54.47485 | -5.13937 | 16141 ft | 360 kts | 304° |
| 2026-05-05 19:55 | 54.48875 | -5.17470 | 15175 ft | 354 kts | 299° |
| 2026-05-05 19:55 | 54.49842 | -5.21317 | 14253 ft | 347 kts | 286° |
| 2026-05-05 19:55 | 54.50243 | -5.25375 | 13314 ft | 342 kts | 273° |
| 2026-05-05 19:56 | 54.50086 | -5.29427 | 12460 ft | 336 kts | 262° |
| 2026-05-05 19:56 | 54.49728 | -5.33303 | 11922 ft | 320 kts | 263° |
| 2026-05-05 19:56 | 54.49399 | -5.37007 | 11433 ft | 306 kts | 263° |
| 2026-05-05 19:56 | 54.49087 | -5.40589 | 10942 ft | 302 kts | 263° |
| 2026-05-05 19:57 | 54.48781 | -5.44138 | 10481 ft | 296 kts | 263° |
| 2026-05-05 19:57 | 54.48583 | -5.46410 | 10271 ft | 285 kts | 263° |
| 2026-05-05 19:57 | 54.48192 | -5.50841 | 9975 ft | 278 kts | 263° |
| 2026-05-05 19:57 | 54.47903 | -5.54083 | 9851 ft | 278 kts | 263° |
| 2026-05-05 19:58 | 54.47605 | -5.57407 | 9713 ft | 278 kts | 263° |